Great Falls, MT

12:02 PM MDT on September 23, 2014 (GMT -0600)
Lewistown Municipal | Change Station
CLOSE
Current Station
Airport
Location: Lewistown,
Elevation: 4167 ft
Nearby Weather Stations

Elev 4167 ft 47.05 °N, 109.47 °W | Updated 8 minutes ago

Partly Cloudy
Partly Cloudy
77 °F
Feels Like 77 °F
N
7
Wind Variable Wind from WNW

Today
High -- | Low -- °F
--% Chance of Precip.
Yesterday
High -- | Low -- °F
Precip. -- in
7:13 AM 7:20 PM
Waning Crescent, 0% visible
Pressure 29.94 in
Visibility 10.0 miles
Clouds Clear
Dew Point 45 °F
Humidity 32%
Rainfall 0.00 in
Snow Depth 1 in , 0 in , 0 in
UV 5 out of 12
Pollen 6.70 out of 12
Air Quality Not available.
Flu Activity Not available.
METAR KLWT 231754Z AUTO 30006KT 10SM CLR 25/07 A3003 RMK AO2 SLP137 T02500072 10250 20089 51004

More Conditions Fewer Conditions

Pressure 29.94 in
Visibility 10.0 miles
Clouds Clear
Dew Point 45 °F
Humidity 32%
Rainfall 0.00 in
Snow Depth 1 in , 0 in , 0 in
UV 5 out of 12
Pollen 6.70 out of 12
Air Quality Not available.
Flu Activity Not available.
METAR KLWT 231754Z AUTO 30006KT 10SM CLR 25/07 A3003 RMK AO2 SLP137 T02500072 10250 20089 51004

More Conditions Fewer Conditions

10-Day Weather Forecast

Almanac

Astronomy

Sep. 23, 2014 Rise Set
Actual Time 7:13 AM MDT 7:20 PM MDT
Civil Twilight 6:42 AM MDT 7:51 PM MDT
Nautical Twilight 6:06 AM MDT 8:27 PM MDT
Astronomical Twilight 5:29 AM MDT 9:04 PM MDT
Moon 6:40 AM MDT 7:00 PM MDT
Length of Visible Light 13h 08m
Length of Day
12h 07m
Tomorrow will be 3m 25s shorter.
Waning Crescent, 0% of the Moon is Illuminated
Today
Waning Crescent
Sep 24
New
Oct 1
First Quarter
Oct 8
Full
Oct 15
Last Quarter

Today's Extremes

State Highs State Lows

Community

WunderPhotos

Upload Photos

1,755,763 photos uploaded!

WunderBlogs® & News

Nearby

Snow Depth

Station Depth Elevation
Wood Creek 1 in 5960 ft
Stringer Creek 0 in 6550 ft
Spur Park 0 in 8100 ft
Monument Peak 0 in 8850 ft
Kraft Creek 0 in 4750 ft

Earthquake Activity

City Distance Mag. Time & Date
No recent earthquake activity has been reported nearby.
Minimum magnitude displayed is 2.5.

Coastal Water Temperatures

Place Temperature
No Stations Reporting

Nearby Weather Stations